createdAt,value
2023-05-02T00:01:15.220Z,9.32
2023-05-02T00:03:43.683Z,6.55
2023-05-02T00:06:11.365Z,6.35
2023-05-02T00:08:38.157Z,7.82
2023-05-02T00:11:05.459Z,10.73
2023-05-02T00:13:33.508Z,7.72
2023-05-02T00:16:00.168Z,8.88
2023-05-02T00:18:26.966Z,8.70
2023-05-02T00:20:53.710Z,7.10
2023-05-02T00:23:20.439Z,10.32
2023-05-02T00:25:47.372Z,7.32
2023-05-02T00:28:14.034Z,12.80
2023-05-02T00:30:47.371Z,8.50
2023-05-02T00:33:15.779Z,8.13
2023-05-02T00:35:42.516Z,9.00
2023-05-02T00:38:09.307Z,7.30
2023-05-02T00:40:52.081Z,8.23
2023-05-02T00:43:18.916Z,9.68
2023-05-02T00:45:46.402Z,8.85
2023-05-02T00:48:13.637Z,9.95
2023-05-02T00:50:42.388Z,9.98
2023-05-02T00:53:12.174Z,9.15
2023-05-02T00:55:39.106Z,8.55
2023-05-02T00:58:10.068Z,10.65
2023-05-02T01:00:48.692Z,9.75
2023-05-02T01:03:41.309Z,12.32
2023-05-02T01:06:20.068Z,7.28
2023-05-02T01:08:56.216Z,6.90
2023-05-02T01:11:46.354Z,9.13
2023-05-02T01:14:15.010Z,8.13
2023-05-02T01:16:45.770Z,9.45
2023-05-02T01:19:51.133Z,12.20
2023-05-02T01:22:20.080Z,8.57
2023-05-02T01:25:06.040Z,8.55
2023-05-02T01:28:09.512Z,8.98
2023-05-02T01:30:38.666Z,9.10
2023-05-02T01:33:06.214Z,8.93
2023-05-02T01:35:35.157Z,11.80
2023-05-02T01:38:03.320Z,6.93
2023-05-02T01:40:30.721Z,7.97
2023-05-02T01:42:58.708Z,10.55
2023-05-02T01:45:28.033Z,10.00
2023-05-02T01:47:55.130Z,9.65
2023-05-02T01:50:24.612Z,8.20
2023-05-02T01:52:53.444Z,10.05
2023-05-02T01:55:20.575Z,10.77
2023-05-02T01:57:50.420Z,9.80
2023-05-02T02:00:18.532Z,13.57
2023-05-02T02:02:47.658Z,9.73
2023-05-02T02:05:16.059Z,9.35
2023-05-02T02:07:43.833Z,10.00
2023-05-02T02:10:11.143Z,10.55
2023-05-02T02:12:43.734Z,9.52
2023-05-02T02:15:18.491Z,12.70
2023-05-02T02:18:01.662Z,11.40
2023-05-02T02:20:29.853Z,10.35
2023-05-02T02:22:57.741Z,10.27
2023-05-02T02:25:26.965Z,8.85
2023-05-02T02:27:54.113Z,12.25
2023-05-02T02:30:20.925Z,10.48
2023-05-02T02:32:47.597Z,10.23
2023-05-02T02:35:14.432Z,12.30
2023-05-02T02:37:58.252Z,11.73
2023-05-02T02:40:29.843Z,12.75
2023-05-02T02:43:27.347Z,10.73
2023-05-02T02:46:12.352Z,13.10
2023-05-02T02:48:56.916Z,10.45
2023-05-02T02:51:32.025Z,9.77
2023-05-02T02:54:26.600Z,11.27
2023-05-02T02:57:07.656Z,11.60
2023-05-02T02:59:41.315Z,9.45
2023-05-02T03:02:09.952Z,9.85
2023-05-02T03:04:40.927Z,11.18
2023-05-02T03:07:08.091Z,19.23
2023-05-02T03:09:45.050Z,11.25
2023-05-02T03:12:12.171Z,15.13
2023-05-02T03:14:39.941Z,15.98
2023-05-02T03:17:08.413Z,11.07
2023-05-02T03:19:35.423Z,15.43
2023-05-02T03:22:02.069Z,13.98
2023-05-02T03:24:28.697Z,12.20
2023-05-02T03:26:56.626Z,11.60
2023-05-02T03:29:23.367Z,12.05
2023-05-02T03:31:50.839Z,11.82
2023-05-02T03:34:17.781Z,13.10
2023-05-02T03:36:44.444Z,11.63
2023-05-02T03:39:11.251Z,13.38
2023-05-02T03:41:38.069Z,11.02
2023-05-02T03:44:04.947Z,12.20
2023-05-02T03:46:31.663Z,15.85
2023-05-02T03:48:58.806Z,13.38
2023-05-02T03:51:25.705Z,15.98
2023-05-02T03:53:52.327Z,11.75
2023-05-02T03:56:23.157Z,10.43
2023-05-02T03:58:49.838Z,10.95
2023-05-02T04:01:17.121Z,11.20
2023-05-02T04:03:44.053Z,13.02
2023-05-02T04:06:11.101Z,11.25
2023-05-02T04:08:37.745Z,11.38
2023-05-02T04:11:04.490Z,12.77
2023-05-02T04:13:31.348Z,11.25
2023-05-02T04:15:57.986Z,10.35
2023-05-02T04:18:24.692Z,9.90
2023-05-02T04:20:51.510Z,11.82
2023-05-02T04:23:18.543Z,11.25
2023-05-02T04:25:57.371Z,12.40
2023-05-02T04:28:24.149Z,12.75
2023-05-02T04:30:51.543Z,16.05
2023-05-02T04:33:18.620Z,12.10
2023-05-02T04:35:45.431Z,13.23
2023-05-02T04:38:12.209Z,14.00
2023-05-02T04:40:39.112Z,14.88
2023-05-02T04:43:05.862Z,12.43
2023-05-02T04:45:32.614Z,10.60
2023-05-02T04:47:59.396Z,13.65
2023-05-02T04:50:28.105Z,11.88
2023-05-02T04:52:54.926Z,15.07
2023-05-02T04:55:21.699Z,10.15
2023-05-02T04:57:48.483Z,9.60
2023-05-02T05:00:15.833Z,11.25
2023-05-02T05:02:43.248Z,9.70
2023-05-02T05:05:10.194Z,11.85
2023-05-02T05:07:37.278Z,16.63
2023-05-02T05:10:04.099Z,12.07
2023-05-02T05:12:30.833Z,13.45
2023-05-02T05:14:57.664Z,12.90
2023-05-02T05:17:24.341Z,11.38
2023-05-02T05:19:51.048Z,13.70
2023-05-02T05:22:17.791Z,14.73
2023-05-02T05:24:54.100Z,16.67
2023-05-02T05:27:21.414Z,19.55
2023-05-02T05:29:48.362Z,19.20
2023-05-02T05:32:15.066Z,15.98
2023-05-02T05:34:41.952Z,14.63
2023-05-02T05:37:08.737Z,16.42
2023-05-02T05:39:35.426Z,15.52
2023-05-02T05:42:02.596Z,18.60
2023-05-02T05:44:29.411Z,20.55
2023-05-02T05:46:56.408Z,18.88
2023-05-02T05:49:24.248Z,17.23
2023-05-02T05:51:51.023Z,20.42
2023-05-02T05:54:18.561Z,16.08
2023-05-02T05:56:45.950Z,17.30
2023-05-02T05:59:12.756Z,17.08
2023-05-02T06:01:39.902Z,15.75
2023-05-02T06:04:07.659Z,17.73
2023-05-02T06:06:34.715Z,21.05
2023-05-02T06:09:01.920Z,18.85
2023-05-02T06:11:28.701Z,19.58
2023-05-02T06:13:55.702Z,22.75
2023-05-02T06:16:22.506Z,19.30
2023-05-02T06:18:50.899Z,22.95
2023-05-02T06:21:17.593Z,16.63
2023-05-02T06:23:44.331Z,17.15
2023-05-02T06:26:11.191Z,19.98
2023-05-02T06:28:37.980Z,17.67
2023-05-02T06:31:06.005Z,17.70
2023-05-02T06:33:33.944Z,22.30
2023-05-02T06:36:01.848Z,19.25
2023-05-02T06:38:29.793Z,19.33
2023-05-02T06:40:56.529Z,17.42
2023-05-02T06:43:23.196Z,17.55
2023-05-02T06:45:54.465Z,21.23
2023-05-02T06:48:21.632Z,19.85
2023-05-02T06:50:49.392Z,21.77
2023-05-02T06:53:16.297Z,23.13
2023-05-02T06:55:44.576Z,21.08
2023-05-02T06:58:11.360Z,22.67
2023-05-02T07:00:38.210Z,25.50
2023-05-02T07:03:04.986Z,27.50
2023-05-02T07:05:31.744Z,23.48
2023-05-02T07:07:58.653Z,30.17
2023-05-02T07:10:25.470Z,31.55
2023-05-02T07:12:52.192Z,27.00
2023-05-02T07:15:18.982Z,27.63
2023-05-02T07:17:47.753Z,36.88
2023-05-02T07:20:15.632Z,33.20
2023-05-02T07:22:43.167Z,37.95
2023-05-02T07:25:10.333Z,34.15
2023-05-02T07:27:37.066Z,43.30
2023-05-02T07:30:04.413Z,38.17
2023-05-02T07:32:31.708Z,40.88
2023-05-02T07:34:58.647Z,44.50
2023-05-02T07:37:25.364Z,41.55
2023-05-02T07:39:52.176Z,42.10
2023-05-02T07:42:18.815Z,43.15
2023-05-02T07:44:45.504Z,41.40
2023-05-02T07:47:12.142Z,44.28
2023-05-02T07:49:38.773Z,47.95
2023-05-02T07:52:05.753Z,48.95
2023-05-02T07:54:32.424Z,43.70
2023-05-02T07:57:02.327Z,40.47
2023-05-02T07:59:30.618Z,50.97
2023-05-02T08:01:57.432Z,46.75
2023-05-02T08:04:24.374Z,46.70
2023-05-02T08:06:51.645Z,54.85
2023-05-02T08:09:18.455Z,45.90
2023-05-02T08:11:45.198Z,46.78
2023-05-02T08:14:11.891Z,52.13
2023-05-02T08:16:38.812Z,46.78
2023-05-02T08:19:05.747Z,54.20
2023-05-02T08:21:32.632Z,50.03
2023-05-02T08:23:59.773Z,53.50
2023-05-02T08:26:27.225Z,43.22
2023-05-02T08:28:55.537Z,48.65
2023-05-02T08:31:22.441Z,48.13
2023-05-02T08:33:49.334Z,46.47
2023-05-02T08:36:17.866Z,45.58
2023-05-02T08:38:46.068Z,43.38
2023-05-02T08:41:17.753Z,42.42
2023-05-02T08:43:47.843Z,38.22
2023-05-02T08:46:17.287Z,41.95
2023-05-02T08:48:48.039Z,39.60
2023-05-02T08:51:16.929Z,44.42
2023-05-02T08:53:44.441Z,43.05
2023-05-02T08:56:12.522Z,40.78
2023-05-02T08:58:40.895Z,43.08
2023-05-02T09:01:16.391Z,42.83
2023-05-02T09:03:47.747Z,37.80
2023-05-02T09:06:20.651Z,40.17
2023-05-02T09:08:49.616Z,43.35
2023-05-02T09:11:17.149Z,34.60
2023-05-02T09:13:44.657Z,47.13
2023-05-02T09:16:25.702Z,36.90
2023-05-02T09:18:57.521Z,37.35
2023-05-02T09:21:26.656Z,37.10
2023-05-02T09:23:55.946Z,37.00
2023-05-02T09:26:33.617Z,42.88
2023-05-02T09:29:02.361Z,36.70
2023-05-02T09:34:13.772Z,43.40
2023-05-02T09:36:45.314Z,37.38
2023-05-02T09:39:14.078Z,36.45
2023-05-02T09:41:45.568Z,38.72
2023-05-02T09:44:14.212Z,40.65
2023-05-02T09:46:48.776Z,37.08
2023-05-02T09:49:18.864Z,38.17
2023-05-02T09:51:49.673Z,35.88
2023-05-02T09:54:38.938Z,35.47
2023-05-02T09:57:07.125Z,33.90
2023-05-02T09:59:34.007Z,30.10
2023-05-02T10:02:02.483Z,33.28
2023-05-02T10:04:31.617Z,31.92
2023-05-02T10:06:59.361Z,31.27
2023-05-02T10:09:27.933Z,30.27
2023-05-02T10:11:56.526Z,34.97
2023-05-02T10:14:27.790Z,33.15
2023-05-02T10:17:12.495Z,34.25
2023-05-02T10:19:48.937Z,32.63
2023-05-02T10:22:22.155Z,30.67
2023-05-02T10:24:53.367Z,30.15
2023-05-02T10:27:20.157Z,28.70
2023-05-02T10:29:47.504Z,32.03
2023-05-02T10:32:17.151Z,30.95
2023-05-02T10:34:44.414Z,33.58
2023-05-02T10:37:12.438Z,31.63
2023-05-02T10:39:39.202Z,31.45
2023-05-02T10:42:06.442Z,31.80
2023-05-02T10:44:37.583Z,31.60
2023-05-02T10:47:24.375Z,33.90
2023-05-02T10:50:02.253Z,33.30
2023-05-02T10:52:41.045Z,33.45
2023-05-02T10:55:20.221Z,37.17
2023-05-02T10:57:59.254Z,32.53
2023-05-02T11:00:30.884Z,35.95
2023-05-02T11:02:57.987Z,30.48
2023-05-02T11:05:25.965Z,34.40
2023-05-02T11:08:23.166Z,29.13
2023-05-02T11:10:50.095Z,30.42
2023-05-02T11:13:16.743Z,26.23
2023-05-02T11:15:43.390Z,33.63
2023-05-02T11:18:14.282Z,28.95
2023-05-02T11:20:42.951Z,32.38
2023-05-02T11:23:15.783Z,36.95
2023-05-02T11:25:44.719Z,39.83
2023-05-02T11:28:36.464Z,34.13
2023-05-02T11:31:04.815Z,37.10
2023-05-02T11:33:31.644Z,35.63
2023-05-02T11:35:58.805Z,38.28
2023-05-02T11:38:27.068Z,34.97
2023-05-02T11:40:59.232Z,33.95
2023-05-02T11:43:30.113Z,35.20
2023-05-02T11:45:59.855Z,37.10
2023-05-02T11:48:27.634Z,40.75
2023-05-02T11:51:05.790Z,42.00
2023-05-02T11:53:33.294Z,46.53
2023-05-02T11:56:04.630Z,40.42
2023-05-02T11:58:33.471Z,48.17
2023-05-02T12:01:15.197Z,47.42
2023-05-02T12:03:42.450Z,48.72
2023-05-02T12:06:12.675Z,44.65
2023-05-02T12:08:40.956Z,46.08
2023-05-02T12:11:07.744Z,43.67
2023-05-02T12:13:35.148Z,42.58
2023-05-02T12:16:02.454Z,47.08
2023-05-02T12:18:29.327Z,48.78
2023-05-02T12:20:56.916Z,42.97
2023-05-02T12:23:26.883Z,39.63
2023-05-02T12:25:53.632Z,53.55
2023-05-02T12:28:20.959Z,40.90
2023-05-02T12:30:49.665Z,43.20
2023-05-02T12:33:17.324Z,41.08
2023-05-02T12:35:46.709Z,38.55
2023-05-02T12:38:14.738Z,39.70
2023-05-02T12:40:57.574Z,35.80
2023-05-02T12:43:24.381Z,38.35
2023-05-02T12:45:53.774Z,39.03
2023-05-02T12:48:28.002Z,40.85
2023-05-02T12:50:55.559Z,38.55
2023-05-02T12:53:45.769Z,36.40
2023-05-02T12:56:13.448Z,31.20
2023-05-02T12:58:45.735Z,33.13
2023-05-02T13:01:13.632Z,29.38
2023-05-02T13:03:43.103Z,29.25
2023-05-02T13:06:10.115Z,27.88
2023-05-02T13:08:37.057Z,26.92
2023-05-02T13:11:04.552Z,26.58
2023-05-02T13:13:32.543Z,30.02
2023-05-02T13:15:59.294Z,37.00
2023-05-02T13:18:27.932Z,31.75
2023-05-02T13:20:54.721Z,27.90
2023-05-02T13:23:21.470Z,26.08
2023-05-02T13:25:48.187Z,28.67
2023-05-02T13:28:15.146Z,25.58
2023-05-02T13:30:42.026Z,26.85
2023-05-02T13:33:08.760Z,22.25
2023-05-02T13:35:35.696Z,20.60
2023-05-02T13:38:03.140Z,19.90
2023-05-02T13:40:29.788Z,16.58
2023-05-02T13:42:56.520Z,23.40
2023-05-02T13:45:23.254Z,22.15
2023-05-02T13:47:50.004Z,27.83
2023-05-02T13:50:16.910Z,20.45
2023-05-02T13:52:43.938Z,21.60
2023-05-02T13:55:10.684Z,21.58
2023-05-02T13:57:37.318Z,23.00
2023-05-02T14:00:04.899Z,17.17
2023-05-02T14:02:32.016Z,17.25
2023-05-02T14:04:58.863Z,17.30
2023-05-02T14:07:25.660Z,16.75
2023-05-02T14:09:52.369Z,15.23
2023-05-02T14:12:19.073Z,17.27
2023-05-02T14:14:45.960Z,17.55
2023-05-02T14:17:12.936Z,15.07
2023-05-02T14:19:39.634Z,14.13
2023-05-02T14:22:07.373Z,14.07
2023-05-02T14:24:34.065Z,16.35
2023-05-02T14:27:01.397Z,14.38
2023-05-02T14:29:28.075Z,13.77
2023-05-02T14:31:54.968Z,11.90
2023-05-02T14:34:22.132Z,15.18
2023-05-02T14:36:48.826Z,15.68
2023-05-02T14:39:15.605Z,16.48
2023-05-02T14:41:42.282Z,13.90
2023-05-02T14:44:08.980Z,16.45
2023-05-02T14:46:35.984Z,12.52
2023-05-02T14:49:02.938Z,14.52
2023-05-02T14:51:29.587Z,11.52
2023-05-02T14:53:56.583Z,11.65
2023-05-02T14:56:24.222Z,10.77
2023-05-02T14:58:51.411Z,13.73
2023-05-02T15:01:19.752Z,11.05
2023-05-02T15:04:03.349Z,7.75
2023-05-02T15:06:35.028Z,11.10
2023-05-02T15:09:02.366Z,9.33
2023-05-02T15:11:29.030Z,11.70
2023-05-02T15:13:58.485Z,8.07
2023-05-02T15:16:27.110Z,7.45
2023-05-02T15:18:54.342Z,8.10
2023-05-02T15:21:21.309Z,8.40
2023-05-02T15:23:48.039Z,6.15
2023-05-02T15:26:14.852Z,5.72
2023-05-02T15:28:42.586Z,7.05
2023-05-02T15:31:09.238Z,7.50
2023-05-02T15:33:37.374Z,8.02
2023-05-02T15:36:04.296Z,8.85
2023-05-02T15:38:31.031Z,8.88
2023-05-02T15:40:59.400Z,8.60
2023-05-02T15:43:26.850Z,9.70
2023-05-02T15:45:58.133Z,8.45
2023-05-02T15:48:28.737Z,8.60
2023-05-02T15:50:55.569Z,10.80
2023-05-02T15:53:22.997Z,8.57
2023-05-02T15:55:53.298Z,8.43
2023-05-02T15:58:20.620Z,8.10
2023-05-02T16:00:51.838Z,12.25
2023-05-02T16:03:18.630Z,7.47
2023-05-02T16:05:46.326Z,5.30
2023-05-02T16:08:13.193Z,5.18
2023-05-02T16:10:40.341Z,5.97
2023-05-02T16:13:07.032Z,7.95
2023-05-02T16:15:33.736Z,5.40
2023-05-02T16:18:00.430Z,3.85
2023-05-02T16:20:28.432Z,5.60
2023-05-02T16:22:55.585Z,4.47
2023-05-02T16:25:22.228Z,4.90
2023-05-02T16:27:49.024Z,4.32
2023-05-02T16:30:16.123Z,3.63
2023-05-02T16:32:43.092Z,3.42
2023-05-02T16:35:12.729Z,4.45
2023-05-02T16:37:41.126Z,6.43
2023-05-02T16:40:09.019Z,4.65
2023-05-02T16:42:36.358Z,4.18
2023-05-02T16:45:03.444Z,5.28
2023-05-02T16:47:30.144Z,3.92
2023-05-02T16:49:58.345Z,6.80
2023-05-02T16:52:26.457Z,4.25
2023-05-02T16:54:53.541Z,5.85
2023-05-02T16:57:21.543Z,3.28
2023-05-02T16:59:50.705Z,5.20
2023-05-02T17:02:19.978Z,4.72
2023-05-02T17:04:46.694Z,8.77
2023-05-02T17:07:13.368Z,3.38
2023-05-02T17:09:41.700Z,6.55
2023-05-02T17:12:10.621Z,4.13
2023-05-02T17:14:39.444Z,4.80
2023-05-02T17:17:06.254Z,2.72
2023-05-02T17:19:32.944Z,7.45
2023-05-02T17:22:00.610Z,4.93
2023-05-02T17:24:29.993Z,6.95
2023-05-02T17:26:57.150Z,7.70
2023-05-02T17:29:23.901Z,6.63
2023-05-02T17:31:51.097Z,5.07
2023-05-02T17:34:17.760Z,6.88
2023-05-02T17:36:45.100Z,5.93
2023-05-02T17:39:13.401Z,7.38
2023-05-02T17:41:40.171Z,11.18
2023-05-02T17:44:06.941Z,10.30
2023-05-02T17:46:33.761Z,7.85
2023-05-02T17:49:00.979Z,8.77
2023-05-02T17:51:28.217Z,8.48
2023-05-02T17:53:54.994Z,7.47
2023-05-02T17:56:21.988Z,5.80
2023-05-02T17:58:48.786Z,6.97
2023-05-02T18:01:17.552Z,7.05
2023-05-02T18:03:44.877Z,6.72
2023-05-02T18:06:16.723Z,4.95
2023-05-02T18:08:44.468Z,6.07
2023-05-02T18:11:18.707Z,4.45
2023-05-02T18:13:46.022Z,5.72
2023-05-02T18:16:13.884Z,9.68
2023-05-02T18:18:41.205Z,6.28
2023-05-02T18:21:09.298Z,7.97
2023-05-02T18:23:35.984Z,5.72
2023-05-02T18:26:03.206Z,6.43
2023-05-02T18:28:30.021Z,7.63
2023-05-02T18:30:56.796Z,5.13
2023-05-02T18:33:23.495Z,5.65
2023-05-02T18:35:50.308Z,5.22
2023-05-02T18:38:17.468Z,3.85
2023-05-02T18:40:44.263Z,3.67
2023-05-02T18:43:11.141Z,4.55
2023-05-02T18:45:37.905Z,5.70
2023-05-02T18:48:04.856Z,19.50
2023-05-02T18:50:31.675Z,10.68
2023-05-02T18:52:58.397Z,13.38
2023-05-02T18:55:25.440Z,7.85
2023-05-02T18:57:52.252Z,6.43
2023-05-02T19:00:20.388Z,5.60
2023-05-02T19:02:47.815Z,3.85
2023-05-02T19:05:15.098Z,7.32
2023-05-02T19:07:42.388Z,5.32
2023-05-02T19:10:10.990Z,4.22
2023-05-02T19:12:38.053Z,6.15
2023-05-02T19:15:06.560Z,6.28
2023-05-02T19:17:33.606Z,4.70
2023-05-02T19:20:00.464Z,6.50
2023-05-02T19:22:27.857Z,8.18
2023-05-02T19:24:55.183Z,5.10
2023-05-02T19:27:21.828Z,8.18
2023-05-02T19:29:48.565Z,9.25
2023-05-02T19:32:15.765Z,6.40
2023-05-02T19:34:42.535Z,7.15
2023-05-02T19:37:09.249Z,8.45
2023-05-02T19:39:36.133Z,6.47
2023-05-02T19:42:03.290Z,10.65
2023-05-02T19:44:30.724Z,5.90
2023-05-02T19:46:57.503Z,8.02
2023-05-02T19:49:24.200Z,8.48
2023-05-02T19:51:50.938Z,7.63
2023-05-02T19:54:17.591Z,10.95
2023-05-02T19:56:44.284Z,7.95
2023-05-02T19:59:11.084Z,6.93
2023-05-02T20:01:37.853Z,7.57
2023-05-02T20:04:04.752Z,6.70
2023-05-02T20:06:32.300Z,9.57
2023-05-02T20:08:59.189Z,7.70
2023-05-02T20:11:26.333Z,14.45
2023-05-02T20:13:54.242Z,8.68
2023-05-02T20:16:21.097Z,9.13
2023-05-02T20:18:47.964Z,13.55
2023-05-02T20:21:14.662Z,8.65
2023-05-02T20:23:43.329Z,10.45
2023-05-02T20:26:10.197Z,14.73
2023-05-02T20:28:37.812Z,10.68
2023-05-02T20:31:04.789Z,8.98
2023-05-02T20:33:43.947Z,11.63
2023-05-02T20:36:13.245Z,10.48
2023-05-02T20:38:42.329Z,7.57
2023-05-02T20:41:12.325Z,13.15
2023-05-02T20:43:39.725Z,11.43
2023-05-02T20:46:16.215Z,12.25
2023-05-02T20:48:43.259Z,9.73
2023-05-02T20:51:10.008Z,10.85
2023-05-02T20:53:37.979Z,11.20
2023-05-02T20:56:05.146Z,15.63
2023-05-02T20:58:32.165Z,13.95
2023-05-02T21:00:59.189Z,9.65
2023-05-02T21:03:27.510Z,9.18
2023-05-02T21:05:55.944Z,11.70
2023-05-02T21:08:23.294Z,12.57
2023-05-02T21:10:50.327Z,7.97
2023-05-02T21:13:17.569Z,10.00
2023-05-02T21:15:44.313Z,11.23
2023-05-02T21:18:11.368Z,11.55
2023-05-02T21:20:39.654Z,10.77
2023-05-02T21:23:06.461Z,8.45
2023-05-02T21:25:33.216Z,12.13
2023-05-02T21:27:59.971Z,8.95
2023-05-02T21:30:26.724Z,11.20
2023-05-02T21:32:53.460Z,16.20
2023-05-02T21:35:20.252Z,8.18
2023-05-02T21:37:46.915Z,11.20
2023-05-02T21:40:13.811Z,17.90
2023-05-02T21:42:40.962Z,11.93
2023-05-02T21:45:08.316Z,12.93
2023-05-02T21:47:35.116Z,15.10
2023-05-02T21:50:02.147Z,11.23
2023-05-02T21:52:29.327Z,14.18
2023-05-02T21:54:57.222Z,10.35
2023-05-02T21:57:23.849Z,13.88
2023-05-02T21:59:50.510Z,13.95
2023-05-02T22:02:17.376Z,12.90
2023-05-02T22:04:48.054Z,18.70
2023-05-02T22:07:16.035Z,11.68
2023-05-02T22:09:42.761Z,11.68
2023-05-02T22:12:09.554Z,16.60
2023-05-02T22:14:44.540Z,14.05
2023-05-02T22:17:12.376Z,16.33
2023-05-02T22:19:39.342Z,10.43
2023-05-02T22:22:06.634Z,11.75
2023-05-02T22:24:33.594Z,14.07
2023-05-02T22:27:00.233Z,17.40
2023-05-02T22:29:26.934Z,17.40
2023-05-02T22:31:53.658Z,16.42
2023-05-02T22:34:20.375Z,12.48
2023-05-02T22:36:47.137Z,12.55
2023-05-02T22:39:15.642Z,13.65
2023-05-02T22:41:43.050Z,28.58
2023-05-02T22:44:11.142Z,10.98
2023-05-02T22:46:39.070Z,15.20
2023-05-02T22:49:10.339Z,22.35
2023-05-02T22:51:40.048Z,14.38
2023-05-02T22:54:08.004Z,12.77
2023-05-02T22:56:35.012Z,12.68
2023-05-02T22:59:01.813Z,12.82
2023-05-02T23:01:28.673Z,12.80
2023-05-02T23:03:55.442Z,19.92
2023-05-02T23:06:22.333Z,13.48
2023-05-02T23:08:49.118Z,13.10
2023-05-02T23:11:15.968Z,13.23
2023-05-02T23:13:42.602Z,15.25
2023-05-02T23:16:09.362Z,16.33
2023-05-02T23:18:36.035Z,14.60
2023-05-02T23:21:04.329Z,14.00
2023-05-02T23:23:31.192Z,16.20
2023-05-02T23:25:58.358Z,16.48
2023-05-02T23:28:25.960Z,13.20
2023-05-02T23:30:53.606Z,13.88
2023-05-02T23:33:20.646Z,17.48
2023-05-02T23:35:47.574Z,14.13
2023-05-02T23:38:14.416Z,14.88
2023-05-02T23:40:41.126Z,15.55
2023-05-02T23:43:08.839Z,16.95
2023-05-02T23:45:35.695Z,19.38
2023-05-02T23:48:02.435Z,12.88
2023-05-02T23:50:29.148Z,16.55
2023-05-02T23:52:55.803Z,13.00
2023-05-02T23:55:22.552Z,12.48
2023-05-02T23:57:49.217Z,13.30
